createdAt,value
2023-08-14T00:00:51.044Z,70.07
2023-08-14T00:03:19.542Z,70.29
2023-08-14T00:05:47.641Z,70.13
2023-08-14T00:08:15.799Z,70.29
2023-08-14T00:10:45.169Z,70.21
2023-08-14T00:13:13.182Z,70.17
2023-08-14T00:15:41.346Z,70.38
2023-08-14T00:18:09.749Z,70.51
2023-08-14T00:20:37.854Z,70.25
2023-08-14T00:23:05.926Z,70.27
2023-08-14T00:25:33.967Z,70.46
2023-08-14T00:28:03.544Z,70.79
2023-08-14T00:30:31.651Z,70.83
2023-08-14T00:32:59.763Z,70.64
2023-08-14T00:35:27.878Z,70.67
2023-08-14T00:37:56.162Z,70.71
2023-08-14T00:40:24.325Z,70.91
2023-08-14T00:42:52.348Z,70.94
2023-08-14T00:45:24.803Z,70.95
2023-08-14T00:47:55.456Z,70.69
2023-08-14T00:50:23.583Z,70.50
2023-08-14T00:52:52.906Z,70.69
2023-08-14T00:55:22.852Z,70.47
2023-08-14T00:57:51.288Z,70.49
2023-08-14T01:00:19.671Z,70.24
2023-08-14T01:02:49.473Z,70.19
2023-08-14T01:05:17.681Z,70.14
2023-08-14T01:07:45.759Z,70.32
2023-08-14T01:10:14.013Z,69.91
2023-08-14T01:12:45.406Z,69.96
2023-08-14T01:15:14.986Z,69.62
2023-08-14T01:17:46.514Z,69.70
2023-08-14T01:20:16.422Z,69.67
2023-08-14T01:22:47.434Z,69.72
2023-08-14T01:25:31.574Z,69.88
2023-08-14T01:27:59.796Z,70.05
2023-08-14T01:30:27.955Z,69.73
2023-08-14T01:32:56.116Z,70.04
2023-08-14T01:35:25.638Z,70.02
2023-08-14T01:37:57.177Z,69.69
2023-08-14T01:40:28.255Z,69.95
2023-08-14T01:43:00.290Z,69.58
2023-08-14T01:45:29.355Z,69.91
2023-08-14T01:47:57.535Z,69.52
2023-08-14T01:50:26.629Z,69.76
2023-08-14T01:52:54.686Z,69.81
2023-08-14T01:55:22.927Z,69.51
2023-08-14T01:57:50.945Z,69.54
2023-08-14T02:00:20.659Z,69.86
2023-08-14T02:02:48.957Z,69.49
2023-08-14T02:05:17.256Z,69.91
2023-08-14T02:07:45.342Z,69.90
2023-08-14T02:10:13.619Z,69.92
2023-08-14T02:12:41.735Z,70.00
2023-08-14T02:15:10.929Z,70.15
2023-08-14T02:17:40.395Z,69.79
2023-08-14T02:20:10.466Z,70.12
2023-08-14T02:22:38.568Z,69.89
2023-08-14T02:25:06.994Z,69.90
2023-08-14T02:27:35.059Z,70.20
2023-08-14T02:30:04.299Z,70.21
2023-08-14T02:32:32.335Z,69.95
2023-08-14T02:35:01.700Z,70.16
2023-08-14T02:37:29.947Z,70.46
2023-08-14T02:39:57.991Z,70.50
2023-08-14T02:42:26.033Z,70.65
2023-08-14T02:44:55.044Z,70.34
2023-08-14T02:47:25.759Z,70.66
2023-08-14T02:49:55.001Z,70.39
2023-08-14T02:52:24.394Z,70.57
2023-08-14T02:54:52.600Z,70.72
2023-08-14T02:57:20.602Z,70.53
2023-08-14T02:59:48.712Z,70.65
2023-08-14T03:02:16.948Z,70.80
2023-08-14T03:04:46.037Z,70.84
2023-08-14T03:07:14.095Z,71.12
2023-08-14T03:09:43.587Z,71.48
2023-08-14T03:12:11.692Z,71.27
2023-08-14T03:14:39.822Z,71.06
2023-08-14T03:17:07.875Z,71.06
2023-08-14T03:19:36.066Z,71.39
2023-08-14T03:22:04.239Z,71.03
2023-08-14T03:24:32.324Z,71.46
2023-08-14T03:27:01.725Z,71.40
2023-08-14T03:29:29.713Z,71.64
2023-08-14T03:31:57.808Z,71.42
2023-08-14T03:34:25.904Z,71.60
2023-08-14T03:36:55.354Z,71.74
2023-08-14T03:39:24.276Z,71.70
2023-08-14T03:41:52.734Z,71.72
2023-08-14T03:44:22.243Z,71.78
2023-08-14T03:46:50.302Z,72.07
2023-08-14T03:49:18.347Z,71.58
2023-08-14T03:51:46.409Z,71.86
2023-08-14T03:54:14.723Z,71.45
2023-08-14T03:56:42.825Z,71.50
2023-08-14T03:59:12.828Z,71.37
2023-08-14T04:01:44.495Z,71.34
2023-08-14T04:04:12.794Z,71.17
2023-08-14T04:06:40.857Z,71.40
2023-08-14T04:09:10.482Z,71.51
2023-08-14T04:11:38.604Z,71.23
2023-08-14T04:14:06.721Z,71.35
2023-08-14T04:16:45.226Z,71.07
2023-08-14T04:19:16.290Z,71.33
2023-08-14T04:21:44.520Z,71.23
2023-08-14T04:24:12.785Z,71.21
2023-08-14T04:26:41.181Z,71.32
2023-08-14T04:29:10.242Z,71.62
2023-08-14T04:31:38.732Z,71.37
2023-08-14T04:34:07.205Z,71.28
2023-08-14T04:36:38.093Z,71.10
2023-08-14T04:39:06.588Z,71.55
2023-08-14T04:41:34.691Z,71.03
2023-08-14T04:44:03.081Z,71.10
2023-08-14T04:46:41.136Z,71.16
2023-08-14T04:49:13.880Z,71.13
2023-08-14T04:51:43.895Z,71.26
2023-08-14T04:54:11.944Z,71.36
2023-08-14T04:56:39.984Z,71.15
2023-08-14T04:59:08.109Z,71.33
2023-08-14T05:01:36.397Z,71.32
2023-08-14T05:04:05.529Z,71.20
2023-08-14T05:06:33.739Z,71.17
2023-08-14T05:09:16.000Z,71.34
2023-08-14T05:11:52.403Z,71.22
2023-08-14T05:14:20.501Z,71.34
2023-08-14T05:16:48.821Z,71.13
2023-08-14T05:19:16.975Z,71.25
2023-08-14T05:21:46.366Z,70.92
2023-08-14T05:24:16.139Z,70.91
2023-08-14T05:26:44.178Z,71.32
2023-08-14T05:29:12.339Z,71.16
2023-08-14T05:31:40.405Z,71.63
2023-08-14T05:34:08.439Z,71.32
2023-08-14T05:36:36.564Z,71.67
2023-08-14T05:39:05.049Z,71.71
2023-08-14T05:41:34.422Z,71.71
2023-08-14T05:44:02.478Z,71.63
2023-08-14T05:46:30.489Z,71.58
2023-08-14T05:48:58.549Z,71.50
2023-08-14T05:51:26.676Z,71.32
2023-08-14T05:53:54.700Z,71.31
2023-08-14T05:56:22.759Z,71.38
2023-08-14T05:58:52.199Z,71.27
2023-08-14T06:01:20.445Z,71.05
2023-08-14T06:03:48.932Z,71.38
2023-08-14T06:06:17.089Z,71.38
2023-08-14T06:08:45.074Z,71.31
2023-08-14T06:11:13.139Z,71.25
2023-08-14T06:13:41.163Z,71.27
2023-08-14T06:16:10.624Z,71.41
2023-08-14T06:18:38.697Z,71.28
2023-08-14T06:21:06.817Z,70.96
2023-08-14T06:23:34.867Z,71.12
2023-08-14T06:26:03.102Z,70.69
2023-08-14T06:28:31.066Z,70.81
2023-08-14T06:31:02.824Z,71.07
2023-08-14T06:33:32.932Z,70.86
2023-08-14T06:36:01.213Z,70.75
2023-08-14T06:38:29.612Z,70.53
2023-08-14T06:40:57.714Z,70.57
2023-08-14T06:43:25.704Z,70.87
2023-08-14T06:45:53.762Z,70.96
2023-08-14T06:48:21.733Z,70.56
2023-08-14T06:50:51.317Z,70.56
2023-08-14T06:53:19.445Z,70.87
2023-08-14T06:55:48.652Z,70.78
2023-08-14T06:58:16.712Z,70.86
2023-08-14T07:00:44.851Z,70.55
2023-08-14T07:03:12.963Z,71.05
2023-08-14T07:05:41.151Z,70.44
2023-08-14T07:08:10.631Z,70.75
2023-08-14T07:10:38.693Z,70.85
2023-08-14T07:13:07.857Z,70.60
2023-08-14T07:15:37.373Z,70.72
2023-08-14T07:18:07.691Z,70.72
2023-08-14T07:20:35.789Z,70.48
2023-08-14T07:23:03.946Z,70.14
2023-08-14T07:25:33.404Z,70.15
2023-08-14T07:28:01.513Z,69.93
2023-08-14T07:30:29.518Z,69.88
2023-08-14T07:32:57.714Z,70.00
2023-08-14T07:35:25.744Z,69.89
2023-08-14T07:37:53.805Z,69.78
2023-08-14T07:40:21.889Z,69.68
2023-08-14T07:42:51.296Z,69.68
2023-08-14T07:45:20.515Z,69.66
2023-08-14T07:47:48.650Z,69.75
2023-08-14T07:50:16.815Z,69.64
2023-08-14T07:52:44.829Z,69.61
2023-08-14T07:55:12.855Z,69.33
2023-08-14T07:57:46.296Z,69.76
2023-08-14T08:00:16.785Z,69.37
2023-08-14T08:02:44.978Z,69.53
2023-08-14T08:05:13.104Z,68.90
2023-08-14T08:07:41.315Z,68.75
2023-08-14T08:10:09.664Z,68.53
2023-08-14T08:12:37.820Z,68.41
2023-08-14T08:15:06.974Z,68.46
2023-08-14T08:17:36.490Z,68.27
2023-08-14T08:20:06.005Z,68.24
2023-08-14T08:22:34.178Z,68.16
2023-08-14T08:25:02.327Z,68.33
2023-08-14T08:27:30.474Z,68.37
2023-08-14T08:29:58.654Z,67.68
2023-08-14T08:32:28.464Z,67.24
2023-08-14T08:35:00.396Z,67.08
2023-08-14T08:37:28.505Z,66.13
2023-08-14T08:39:56.635Z,65.89
2023-08-14T08:42:24.895Z,65.58
2023-08-14T08:44:53.149Z,64.75
2023-08-14T08:47:24.031Z,64.64
2023-08-14T08:49:52.151Z,64.34
2023-08-14T08:52:21.741Z,64.09
2023-08-14T08:54:50.127Z,63.85
2023-08-14T08:57:18.328Z,63.55
2023-08-14T08:59:46.514Z,63.32
2023-08-14T09:02:14.663Z,63.50
2023-08-14T09:04:42.857Z,63.49
2023-08-14T09:07:11.049Z,63.42
2023-08-14T09:09:40.570Z,64.13
2023-08-14T09:12:08.907Z,64.38
2023-08-14T09:14:37.020Z,64.51
2023-08-14T09:17:05.215Z,64.45
2023-08-14T09:19:33.248Z,64.20
2023-08-14T09:22:01.276Z,63.80
2023-08-14T09:24:29.382Z,63.65
2023-08-14T09:26:58.725Z,63.48
2023-08-14T09:29:26.789Z,63.46
2023-08-14T09:31:55.024Z,63.29
2023-08-14T09:34:23.218Z,62.90
2023-08-14T09:36:51.329Z,63.42
2023-08-14T09:39:19.503Z,64.10
2023-08-14T09:41:48.679Z,63.93
2023-08-14T09:44:20.509Z,64.70
2023-08-14T09:46:50.627Z,64.84
2023-08-14T09:49:19.066Z,64.83
2023-08-14T09:51:56.147Z,64.79
2023-08-14T09:54:32.788Z,64.72
2023-08-14T09:59:37.956Z,65.08
2023-08-14T10:02:07.224Z,64.92
2023-08-14T10:04:35.335Z,64.80
2023-08-14T10:07:03.689Z,64.73
2023-08-14T10:09:31.861Z,64.89
2023-08-14T10:12:02.135Z,65.00
2023-08-14T10:14:30.285Z,65.28
2023-08-14T10:17:00.538Z,65.40
2023-08-14T10:19:30.260Z,65.50
2023-08-14T10:21:58.385Z,65.12
2023-08-14T10:24:28.831Z,64.92
2023-08-14T10:26:57.770Z,64.87
2023-08-14T10:29:25.876Z,64.42
2023-08-14T10:31:54.045Z,64.04
2023-08-14T10:34:24.457Z,63.68
2023-08-14T10:36:53.116Z,63.71
2023-08-14T10:39:21.245Z,63.59
2023-08-14T10:41:49.438Z,63.38
2023-08-14T10:44:17.529Z,62.93
2023-08-14T10:46:46.550Z,63.20
2023-08-14T10:49:15.073Z,62.85
2023-08-14T10:51:44.915Z,62.52
2023-08-14T10:54:14.108Z,61.81
2023-08-14T10:56:44.307Z,61.54
2023-08-14T10:59:23.660Z,61.88
2023-08-14T11:01:53.439Z,60.93
2023-08-14T11:04:21.715Z,60.72
2023-08-14T11:07:09.961Z,60.54
2023-08-14T11:09:38.860Z,60.91
2023-08-14T11:12:07.938Z,60.87
2023-08-14T11:14:40.148Z,60.19
2023-08-14T11:17:09.217Z,60.40
2023-08-14T11:19:37.396Z,60.39
2023-08-14T11:22:06.959Z,59.93
2023-08-14T11:24:35.145Z,59.96
2023-08-14T11:27:03.399Z,59.76
2023-08-14T11:29:33.066Z,59.43
2023-08-14T11:32:02.308Z,59.49
2023-08-14T11:34:33.390Z,59.29
2023-08-14T11:39:34.821Z,59.92
2023-08-14T11:42:04.511Z,60.00
2023-08-14T11:44:34.711Z,59.43
2023-08-14T11:47:04.053Z,58.21
2023-08-14T11:49:33.585Z,57.53
2023-08-14T11:52:04.241Z,57.60
2023-08-14T11:54:34.263Z,57.24
2023-08-14T11:57:03.768Z,57.55
2023-08-14T11:59:31.977Z,57.91
2023-08-14T12:02:00.055Z,57.64
2023-08-14T12:04:28.165Z,57.20
2023-08-14T12:06:56.550Z,57.42
2023-08-14T12:09:27.889Z,57.66
2023-08-14T12:11:57.517Z,57.67
2023-08-14T12:14:25.561Z,57.13
2023-08-14T12:16:53.730Z,57.30
2023-08-14T12:19:22.390Z,57.16
2023-08-14T12:21:57.910Z,57.63
2023-08-14T12:24:26.241Z,57.17
2023-08-14T12:26:55.328Z,57.69
2023-08-14T12:29:24.879Z,57.57
2023-08-14T12:31:53.888Z,57.48
2023-08-14T12:34:22.819Z,57.04
2023-08-14T12:36:50.899Z,56.67
2023-08-14T12:39:19.012Z,57.18
2023-08-14T12:41:47.143Z,57.66
2023-08-14T12:44:15.491Z,57.15
2023-08-14T12:46:45.000Z,56.92
2023-08-14T12:49:13.102Z,56.50
2023-08-14T12:51:42.719Z,56.21
2023-08-14T12:54:12.079Z,56.28
2023-08-14T12:56:40.797Z,56.36
2023-08-14T12:59:09.625Z,56.49
2023-08-14T13:01:38.066Z,56.35
2023-08-14T13:04:08.058Z,56.15
2023-08-14T13:06:36.136Z,56.25
2023-08-14T13:09:04.285Z,56.20
2023-08-14T13:11:32.422Z,55.14
2023-08-14T13:14:00.496Z,55.27
2023-08-14T13:16:28.763Z,55.60
2023-08-14T13:18:56.904Z,55.63
2023-08-14T13:21:26.920Z,56.00
2023-08-14T13:23:54.992Z,56.50
2023-08-14T13:26:27.103Z,55.83
2023-08-14T13:28:56.419Z,55.97
2023-08-14T13:31:24.512Z,55.93
2023-08-14T13:33:52.813Z,55.95
2023-08-14T13:36:20.985Z,55.28
2023-08-14T13:38:50.401Z,54.98
2023-08-14T13:41:19.024Z,54.78
2023-08-14T13:43:47.901Z,55.39
2023-08-14T13:46:16.084Z,55.52
2023-08-14T13:48:45.739Z,55.82
2023-08-14T13:51:14.292Z,56.19
2023-08-14T13:53:42.382Z,56.12
2023-08-14T13:56:11.767Z,56.30
2023-08-14T13:58:39.839Z,56.14
2023-08-14T14:01:08.533Z,56.14
2023-08-14T14:03:36.556Z,56.47
2023-08-14T14:06:04.695Z,56.10
2023-08-14T14:08:33.027Z,56.11
2023-08-14T14:11:01.188Z,56.47
2023-08-14T14:13:31.939Z,56.56
2023-08-14T14:16:00.152Z,56.66
2023-08-14T14:18:28.299Z,56.88
2023-08-14T14:20:56.468Z,56.60
2023-08-14T14:23:24.729Z,56.62
2023-08-14T14:25:52.930Z,56.15
2023-08-14T14:28:21.250Z,55.88
2023-08-14T14:30:50.921Z,56.37
2023-08-14T14:33:18.985Z,55.84
2023-08-14T14:35:47.029Z,55.95
2023-08-14T14:38:15.194Z,55.29
2023-08-14T14:40:43.217Z,55.18
2023-08-14T14:43:11.432Z,55.08
2023-08-14T14:45:39.508Z,55.37
2023-08-14T14:48:09.191Z,54.85
2023-08-14T14:50:37.161Z,54.83
2023-08-14T14:53:05.566Z,54.27
2023-08-14T14:55:33.963Z,54.51
2023-08-14T14:58:02.069Z,54.46
2023-08-14T15:00:30.153Z,54.35
2023-08-14T15:02:58.363Z,54.00
2023-08-14T15:05:29.543Z,53.70
2023-08-14T15:07:57.944Z,53.43
2023-08-14T15:10:26.051Z,52.99
2023-08-14T15:12:54.249Z,52.94
2023-08-14T15:15:23.076Z,52.81
2023-08-14T15:17:51.381Z,52.85
2023-08-14T15:20:19.918Z,52.19
2023-08-14T15:22:49.388Z,51.80
2023-08-14T15:25:19.754Z,51.92
2023-08-14T15:27:47.901Z,53.56
2023-08-14T15:30:17.502Z,51.48
2023-08-14T15:32:48.091Z,50.12
2023-08-14T15:35:16.945Z,49.06
2023-08-14T15:37:45.147Z,48.93
2023-08-14T15:40:15.065Z,49.50
2023-08-14T15:42:43.124Z,50.11
2023-08-14T15:45:14.264Z,51.20
2023-08-14T15:47:43.285Z,49.80
2023-08-14T15:50:11.719Z,48.41
2023-08-14T15:52:39.816Z,47.12
2023-08-14T15:55:09.042Z,46.49
2023-08-14T15:57:38.469Z,46.73
2023-08-14T16:00:11.155Z,46.60
2023-08-14T16:02:41.232Z,46.92
2023-08-14T16:05:09.894Z,47.36
2023-08-14T16:07:38.413Z,48.06
2023-08-14T16:10:06.890Z,48.65
2023-08-14T16:12:34.850Z,49.46
2023-08-14T16:15:05.133Z,48.56
2023-08-14T16:17:33.162Z,48.29
2023-08-14T16:20:01.204Z,49.08
2023-08-14T16:22:29.258Z,49.45
2023-08-14T16:24:57.248Z,49.98
2023-08-14T16:27:25.276Z,49.91
2023-08-14T16:29:53.247Z,49.94
2023-08-14T16:32:22.620Z,49.65
2023-08-14T16:34:50.619Z,49.89
2023-08-14T16:37:19.653Z,49.94
2023-08-14T16:39:48.385Z,50.11
2023-08-14T16:42:16.394Z,50.13
2023-08-14T16:44:44.925Z,50.18
2023-08-14T16:47:13.831Z,49.41
2023-08-14T16:49:43.343Z,49.63
2023-08-14T16:52:11.380Z,49.00
2023-08-14T16:54:39.505Z,47.16
2023-08-14T16:57:07.837Z,45.84
2023-08-14T16:59:35.850Z,45.19
2023-08-14T17:02:05.290Z,44.70
2023-08-14T17:04:33.418Z,45.22
2023-08-14T17:07:04.153Z,46.51
2023-08-14T17:09:32.230Z,46.18
2023-08-14T17:12:00.254Z,45.94
2023-08-14T17:14:28.435Z,45.26
2023-08-14T17:17:00.031Z,45.03
2023-08-14T17:19:28.547Z,44.55
2023-08-14T17:21:56.520Z,44.74
2023-08-14T17:24:25.994Z,43.22
2023-08-14T17:26:53.988Z,43.29
2023-08-14T17:29:22.506Z,44.20
2023-08-14T17:31:51.522Z,44.10
2023-08-14T17:34:19.552Z,44.00
2023-08-14T17:36:48.273Z,44.17
2023-08-14T17:39:16.407Z,43.95
2023-08-14T17:41:45.872Z,43.48
2023-08-14T17:44:15.355Z,43.80
2023-08-14T17:46:43.328Z,44.73
2023-08-14T17:49:11.379Z,45.44
2023-08-14T17:51:39.355Z,45.60
2023-08-14T17:54:07.411Z,46.21
2023-08-14T17:56:35.429Z,47.17
2023-08-14T17:59:05.186Z,47.93
2023-08-14T18:01:33.943Z,48.32
2023-08-14T18:04:02.155Z,48.73
2023-08-14T18:06:30.243Z,49.30
2023-08-14T18:08:58.229Z,49.40
2023-08-14T18:11:26.297Z,49.74
2023-08-14T18:13:54.559Z,49.89
2023-08-14T18:16:23.995Z,50.56
2023-08-14T18:18:58.147Z,50.27
2023-08-14T18:21:36.976Z,50.67
2023-08-14T18:24:05.605Z,50.96
2023-08-14T18:26:33.621Z,50.57
2023-08-14T18:29:02.090Z,50.62
2023-08-14T18:31:31.554Z,50.92
2023-08-14T18:33:59.571Z,50.99
2023-08-14T18:36:29.401Z,51.25
2023-08-14T18:38:57.512Z,51.05
2023-08-14T18:41:25.555Z,51.50
2023-08-14T18:43:53.560Z,51.30
2023-08-14T18:46:21.870Z,51.84
2023-08-14T18:48:51.362Z,51.76
2023-08-14T18:51:19.369Z,52.04
2023-08-14T18:53:48.452Z,51.96
2023-08-14T18:56:16.486Z,52.05
2023-08-14T18:58:47.389Z,52.49
2023-08-14T19:01:15.423Z,52.22
2023-08-14T19:03:43.535Z,52.44
2023-08-14T19:06:13.047Z,52.55
2023-08-14T19:08:41.125Z,52.93
2023-08-14T19:11:09.080Z,53.14
2023-08-14T19:13:37.965Z,53.27
2023-08-14T19:16:06.380Z,53.47
2023-08-14T19:18:34.532Z,53.33
2023-08-14T19:21:03.329Z,53.16
2023-08-14T19:23:32.953Z,53.21
2023-08-14T19:26:06.436Z,53.24
2023-08-14T19:28:40.161Z,53.48
2023-08-14T19:31:09.104Z,53.80
2023-08-14T19:33:37.191Z,53.94
2023-08-14T19:36:05.643Z,54.56
2023-08-14T19:38:35.087Z,54.58
2023-08-14T19:41:03.084Z,54.78
2023-08-14T19:43:31.098Z,54.82
2023-08-14T19:45:59.940Z,54.77
2023-08-14T19:48:27.928Z,55.23
2023-08-14T19:50:56.007Z,55.03
2023-08-14T19:53:23.978Z,55.06
2023-08-14T19:55:53.956Z,54.98
2023-08-14T19:58:23.450Z,55.23
2023-08-14T20:00:51.790Z,55.26
2023-08-14T20:03:19.903Z,55.40
2023-08-14T20:05:48.966Z,55.26
2023-08-14T20:08:17.119Z,55.64
2023-08-14T20:10:45.185Z,55.85
2023-08-14T20:13:14.699Z,55.53
2023-08-14T20:15:44.628Z,55.91
2023-08-14T20:18:12.953Z,56.07
2023-08-14T20:20:41.283Z,56.06
2023-08-14T20:23:09.349Z,56.32
2023-08-14T20:25:38.141Z,56.43
2023-08-14T20:28:07.100Z,56.25
2023-08-14T20:30:40.152Z,55.99
2023-08-14T20:33:08.457Z,56.25
2023-08-14T20:35:40.557Z,56.16
2023-08-14T20:38:08.724Z,56.26
2023-08-14T20:40:37.142Z,56.47
2023-08-14T20:43:10.903Z,56.08
2023-08-14T20:45:40.716Z,56.28
2023-08-14T20:48:09.321Z,56.43
2023-08-14T20:50:37.937Z,56.11
2023-08-14T20:53:06.078Z,56.05
2023-08-14T20:55:34.211Z,56.01
2023-08-14T20:58:02.262Z,56.12
2023-08-14T21:00:30.274Z,56.23
2023-08-14T21:02:59.732Z,56.51
2023-08-14T21:05:27.785Z,56.39
2023-08-14T21:07:55.817Z,56.47
2023-08-14T21:10:23.787Z,56.39
2023-08-14T21:12:51.854Z,56.45
2023-08-14T21:15:19.853Z,56.34
2023-08-14T21:17:47.977Z,56.37
2023-08-14T21:20:17.411Z,56.17
2023-08-14T21:22:46.171Z,56.47
2023-08-14T21:25:15.507Z,56.43
2023-08-14T21:27:43.579Z,56.14
2023-08-14T21:30:12.838Z,56.20
2023-08-14T21:32:40.928Z,56.46
2023-08-14T21:35:09.792Z,56.14
2023-08-14T21:37:40.302Z,56.33
2023-08-14T21:40:09.642Z,56.19
2023-08-14T21:42:37.652Z,56.38
2023-08-14T21:45:06.196Z,56.16
2023-08-14T21:47:34.211Z,56.20
2023-08-14T21:50:02.473Z,56.23
2023-08-14T21:52:31.328Z,56.30
2023-08-14T21:55:00.740Z,56.37
2023-08-14T21:57:28.726Z,56.51
2023-08-14T21:59:56.744Z,56.44
2023-08-14T22:02:24.766Z,56.38
2023-08-14T22:04:52.845Z,56.57
2023-08-14T22:07:21.009Z,56.59
2023-08-14T22:09:49.245Z,56.52
2023-08-14T22:12:18.574Z,56.40
2023-08-14T22:14:46.705Z,56.23
2023-08-14T22:17:14.646Z,56.59
2023-08-14T22:19:42.668Z,56.60
2023-08-14T22:22:10.702Z,56.40
2023-08-14T22:24:41.325Z,56.75
2023-08-14T22:27:09.944Z,56.65
2023-08-14T22:29:39.334Z,56.76
2023-08-14T22:32:07.333Z,56.51
2023-08-14T22:34:37.442Z,56.48
2023-08-14T22:37:05.533Z,56.55
2023-08-14T22:39:33.558Z,56.66
2023-08-14T22:42:01.567Z,56.58
2023-08-14T22:44:29.563Z,56.29
2023-08-14T22:46:58.903Z,56.46
2023-08-14T22:49:26.890Z,56.43
2023-08-14T22:51:54.865Z,56.54
2023-08-14T22:54:23.024Z,56.30
2023-08-14T22:56:50.994Z,56.54
2023-08-14T22:59:19.033Z,56.30
2023-08-14T23:01:47.084Z,56.39
2023-08-14T23:04:16.524Z,56.63
2023-08-14T23:06:44.584Z,56.77
2023-08-14T23:09:12.582Z,56.45
2023-08-14T23:11:40.564Z,56.67
2023-08-14T23:14:08.805Z,56.72
2023-08-14T23:16:37.198Z,56.95
2023-08-14T23:19:05.383Z,56.92
2023-08-14T23:21:34.730Z,56.81
2023-08-14T23:24:02.773Z,56.84
2023-08-14T23:26:30.736Z,56.67
2023-08-14T23:28:58.761Z,56.78
2023-08-14T23:31:26.843Z,56.73
2023-08-14T23:33:54.934Z,56.87
2023-08-14T23:36:22.974Z,56.65
2023-08-14T23:38:52.319Z,56.78
2023-08-14T23:41:20.294Z,56.75
2023-08-14T23:43:48.241Z,56.69
2023-08-14T23:46:16.252Z,56.87
2023-08-14T23:48:44.253Z,56.76
2023-08-14T23:51:12.557Z,56.87
2023-08-14T23:53:40.571Z,56.92
2023-08-14T23:56:10.086Z,56.62
2023-08-14T23:58:38.083Z,56.58
